sensor_id;sensor_type;location;lat;lon;timestamp;temperature;humidity
15072;DHT22;7635;56.696;13.002;2023-08-21T00:01:01;15.40;99.90
15072;DHT22;7635;56.696;13.002;2023-08-21T00:03:27;15.40;99.90
15072;DHT22;7635;56.696;13.002;2023-08-21T00:05:55;15.40;99.90
15072;DHT22;7635;56.696;13.002;2023-08-21T00:08:21;15.40;99.90
15072;DHT22;7635;56.696;13.002;2023-08-21T00:10:49;15.30;99.90
15072;DHT22;7635;56.696;13.002;2023-08-21T00:13:16;15.30;99.90
15072;DHT22;7635;56.696;13.002;2023-08-21T00:15:44;15.30;99.90
15072;DHT22;7635;56.696;13.002;2023-08-21T00:18:11;15.30;99.90
15072;DHT22;7635;56.696;13.002;2023-08-21T00:20:37;15.20;99.90
15072;DHT22;7635;56.696;13.002;2023-08-21T00:23:04;15.10;99.90
15072;DHT22;7635;56.696;13.002;2023-08-21T00:25:31;15.10;99.90
15072;DHT22;7635;56.696;13.002;2023-08-21T00:27:59;15.00;99.90
15072;DHT22;7635;56.696;13.002;2023-08-21T00:30:26;14.90;99.90
15072;DHT22;7635;56.696;13.002;2023-08-21T00:32:52;14.90;99.90
15072;DHT22;7635;56.696;13.002;2023-08-21T00:35:19;14.80;99.90
15072;DHT22;7635;56.696;13.002;2023-08-21T00:37:46;14.90;99.90
15072;DHT22;7635;56.696;13.002;2023-08-21T00:40:13;14.80;99.90
15072;DHT22;7635;56.696;13.002;2023-08-21T00:42:40;14.80;99.90
15072;DHT22;7635;56.696;13.002;2023-08-21T00:45:08;14.80;99.90
15072;DHT22;7635;56.696;13.002;2023-08-21T00:47:36;14.80;99.90
15072;DHT22;7635;56.696;13.002;2023-08-21T00:50:06;14.70;99.90
15072;DHT22;7635;56.696;13.002;2023-08-21T00:52:34;14.70;99.90
15072;DHT22;7635;56.696;13.002;2023-08-21T00:55:01;14.70;99.90
15072;DHT22;7635;56.696;13.002;2023-08-21T00:57:28;14.70;99.90
15072;DHT22;7635;56.696;13.002;2023-08-21T00:59:55;14.80;99.90
15072;DHT22;7635;56.696;13.002;2023-08-21T01:02:24;14.80;99.90
15072;DHT22;7635;56.696;13.002;2023-08-21T01:04:50;14.80;99.90
15072;DHT22;7635;56.696;13.002;2023-08-21T01:07:17;14.80;99.90
15072;DHT22;7635;56.696;13.002;2023-08-21T01:09:49;14.80;99.90
15072;DHT22;7635;56.696;13.002;2023-08-21T01:12:22;14.80;99.90
15072;DHT22;7635;56.696;13.002;2023-08-21T01:14:57;14.80;99.90
15072;DHT22;7635;56.696;13.002;2023-08-21T01:17:26;14.80;99.90
15072;DHT22;7635;56.696;13.002;2023-08-21T01:19:55;14.80;99.90
15072;DHT22;7635;56.696;13.002;2023-08-21T01:22:25;14.80;99.90
15072;DHT22;7635;56.696;13.002;2023-08-21T01:24:54;14.90;99.90
15072;DHT22;7635;56.696;13.002;2023-08-21T01:27:20;14.90;99.90
15072;DHT22;7635;56.696;13.002;2023-08-21T01:29:47;14.90;99.90
15072;DHT22;7635;56.696;13.002;2023-08-21T01:32:20;14.90;99.90
15072;DHT22;7635;56.696;13.002;2023-08-21T01:34:48;14.90;99.90
15072;DHT22;7635;56.696;13.002;2023-08-21T01:37:16;14.90;99.90
15072;DHT22;7635;56.696;13.002;2023-08-21T01:39:43;14.90;99.90
15072;DHT22;7635;56.696;13.002;2023-08-21T01:42:11;14.80;99.90
15072;DHT22;7635;56.696;13.002;2023-08-21T01:44:38;14.80;99.90
15072;DHT22;7635;56.696;13.002;2023-08-21T01:47:05;14.80;99.90
15072;DHT22;7635;56.696;13.002;2023-08-21T01:49:32;14.70;99.90
15072;DHT22;7635;56.696;13.002;2023-08-21T01:51:59;14.70;99.90
15072;DHT22;7635;56.696;13.002;2023-08-21T01:54:25;14.70;99.90
15072;DHT22;7635;56.696;13.002;2023-08-21T01:56:52;14.70;99.90
15072;DHT22;7635;56.696;13.002;2023-08-21T01:59:21;14.60;99.90
15072;DHT22;7635;56.696;13.002;2023-08-21T02:01:47;14.60;99.90
15072;DHT22;7635;56.696;13.002;2023-08-21T02:04:14;14.60;99.90
15072;DHT22;7635;56.696;13.002;2023-08-21T02:06:41;14.60;99.90
15072;DHT22;7635;56.696;13.002;2023-08-21T02:09:09;14.60;99.90
15072;DHT22;7635;56.696;13.002;2023-08-21T02:11:36;14.50;99.90
15072;DHT22;7635;56.696;13.002;2023-08-21T02:14:03;14.50;99.90
15072;DHT22;7635;56.696;13.002;2023-08-21T02:16:31;14.50;99.90
15072;DHT22;7635;56.696;13.002;2023-08-21T02:18:58;14.50;99.90
15072;DHT22;7635;56.696;13.002;2023-08-21T02:21:25;14.50;99.90
15072;DHT22;7635;56.696;13.002;2023-08-21T02:23:52;14.50;99.90
15072;DHT22;7635;56.696;13.002;2023-08-21T02:26:18;14.40;99.90
15072;DHT22;7635;56.696;13.002;2023-08-21T02:28:45;14.40;99.90
15072;DHT22;7635;56.696;13.002;2023-08-21T02:31:12;14.40;99.90
15072;DHT22;7635;56.696;13.002;2023-08-21T02:33:40;14.40;99.90
15072;DHT22;7635;56.696;13.002;2023-08-21T02:36:07;14.40;99.90
15072;DHT22;7635;56.696;13.002;2023-08-21T02:38:34;14.40;99.90
15072;DHT22;7635;56.696;13.002;2023-08-21T02:41:00;14.40;99.90
15072;DHT22;7635;56.696;13.002;2023-08-21T02:43:27;14.50;99.90
15072;DHT22;7635;56.696;13.002;2023-08-21T02:45:54;14.40;99.90
15072;DHT22;7635;56.696;13.002;2023-08-21T02:48:20;14.50;99.90
15072;DHT22;7635;56.696;13.002;2023-08-21T02:50:49;14.40;99.90
15072;DHT22;7635;56.696;13.002;2023-08-21T02:53:15;14.40;99.90
15072;DHT22;7635;56.696;13.002;2023-08-21T02:55:42;14.40;99.90
15072;DHT22;7635;56.696;13.002;2023-08-21T02:58:09;14.40;99.90
15072;DHT22;7635;56.696;13.002;2023-08-21T03:00:35;14.40;99.90
15072;DHT22;7635;56.696;13.002;2023-08-21T03:03:03;14.40;99.90
15072;DHT22;7635;56.696;13.002;2023-08-21T03:05:30;14.40;99.90
15072;DHT22;7635;56.696;13.002;2023-08-21T03:07:58;14.40;99.90
15072;DHT22;7635;56.696;13.002;2023-08-21T03:10:25;14.40;99.90
15072;DHT22;7635;56.696;13.002;2023-08-21T03:12:52;14.30;99.90
15072;DHT22;7635;56.696;13.002;2023-08-21T03:15:19;14.30;99.90
15072;DHT22;7635;56.696;13.002;2023-08-21T03:17:46;14.30;99.90
15072;DHT22;7635;56.696;13.002;2023-08-21T03:20:13;14.30;99.90
15072;DHT22;7635;56.696;13.002;2023-08-21T03:22:40;14.20;99.90
15072;DHT22;7635;56.696;13.002;2023-08-21T03:25:09;14.20;99.90
15072;DHT22;7635;56.696;13.002;2023-08-21T03:27:36;14.10;99.90
15072;DHT22;7635;56.696;13.002;2023-08-21T03:30:06;14.10;99.90
15072;DHT22;7635;56.696;13.002;2023-08-21T03:32:33;14.10;99.90
15072;DHT22;7635;56.696;13.002;2023-08-21T03:35:00;14.00;99.90
15072;DHT22;7635;56.696;13.002;2023-08-21T03:37:26;14.00;99.90
15072;DHT22;7635;56.696;13.002;2023-08-21T03:39:53;14.00;99.90
15072;DHT22;7635;56.696;13.002;2023-08-21T03:42:21;13.90;99.90
15072;DHT22;7635;56.696;13.002;2023-08-21T03:44:48;13.90;99.90
15072;DHT22;7635;56.696;13.002;2023-08-21T03:47:15;13.90;99.90
15072;DHT22;7635;56.696;13.002;2023-08-21T03:49:42;13.80;99.90
15072;DHT22;7635;56.696;13.002;2023-08-21T03:52:09;13.80;99.90
15072;DHT22;7635;56.696;13.002;2023-08-21T03:54:35;13.70;99.90
15072;DHT22;7635;56.696;13.002;2023-08-21T03:57:02;13.70;99.90
15072;DHT22;7635;56.696;13.002;2023-08-21T03:59:31;13.70;99.90
15072;DHT22;7635;56.696;13.002;2023-08-21T04:01:57;13.70;99.90
15072;DHT22;7635;56.696;13.002;2023-08-21T04:04:24;13.60;99.90
15072;DHT22;7635;56.696;13.002;2023-08-21T04:06:51;13.60;99.90
15072;DHT22;7635;56.696;13.002;2023-08-21T04:09:17;13.60;99.90
15072;DHT22;7635;56.696;13.002;2023-08-21T04:11:44;13.60;99.90
15072;DHT22;7635;56.696;13.002;2023-08-21T04:14:11;13.60;99.90
15072;DHT22;7635;56.696;13.002;2023-08-21T04:16:39;13.60;99.90
15072;DHT22;7635;56.696;13.002;2023-08-21T04:19:05;13.60;99.90
15072;DHT22;7635;56.696;13.002;2023-08-21T04:21:32;13.60;99.90
15072;DHT22;7635;56.696;13.002;2023-08-21T04:23:59;13.70;99.90
15072;DHT22;7635;56.696;13.002;2023-08-21T04:26:26;13.70;99.90
15072;DHT22;7635;56.696;13.002;2023-08-21T04:28:52;13.60;99.90
15072;DHT22;7635;56.696;13.002;2023-08-21T04:31:19;13.60;99.90
15072;DHT22;7635;56.696;13.002;2023-08-21T04:33:47;13.60;99.90
15072;DHT22;7635;56.696;13.002;2023-08-21T04:36:14;13.60;99.90
15072;DHT22;7635;56.696;13.002;2023-08-21T04:38:42;13.60;99.90
15072;DHT22;7635;56.696;13.002;2023-08-21T04:41:09;13.60;99.90
15072;DHT22;7635;56.696;13.002;2023-08-21T04:43:36;13.70;99.90
15072;DHT22;7635;56.696;13.002;2023-08-21T04:46:04;13.70;99.90
15072;DHT22;7635;56.696;13.002;2023-08-21T04:48:31;13.70;99.90
15072;DHT22;7635;56.696;13.002;2023-08-21T04:50:59;13.80;99.90
15072;DHT22;7635;56.696;13.002;2023-08-21T04:53:26;13.80;99.90
15072;DHT22;7635;56.696;13.002;2023-08-21T04:55:53;13.80;99.90
15072;DHT22;7635;56.696;13.002;2023-08-21T04:58:19;13.90;99.90
15072;DHT22;7635;56.696;13.002;2023-08-21T05:00:46;13.90;99.90
15072;DHT22;7635;56.696;13.002;2023-08-21T05:03:12;14.00;99.90
15072;DHT22;7635;56.696;13.002;2023-08-21T05:05:39;14.10;99.90
15072;DHT22;7635;56.696;13.002;2023-08-21T05:08:07;14.10;99.90
15072;DHT22;7635;56.696;13.002;2023-08-21T05:10:34;14.20;99.90
15072;DHT22;7635;56.696;13.002;2023-08-21T05:13:01;14.30;99.90
15072;DHT22;7635;56.696;13.002;2023-08-21T05:15:27;14.40;99.90
15072;DHT22;7635;56.696;13.002;2023-08-21T05:17:54;14.40;99.90
15072;DHT22;7635;56.696;13.002;2023-08-21T05:20:21;14.40;99.90
15072;DHT22;7635;56.696;13.002;2023-08-21T05:22:47;14.40;99.90
15072;DHT22;7635;56.696;13.002;2023-08-21T05:25:15;14.40;99.90
15072;DHT22;7635;56.696;13.002;2023-08-21T05:27:42;14.50;99.90
15072;DHT22;7635;56.696;13.002;2023-08-21T05:30:09;14.60;99.90
15072;DHT22;7635;56.696;13.002;2023-08-21T05:32:37;14.60;99.90
15072;DHT22;7635;56.696;13.002;2023-08-21T05:35:05;14.70;99.90
15072;DHT22;7635;56.696;13.002;2023-08-21T05:37:33;14.80;99.90
15072;DHT22;7635;56.696;13.002;2023-08-21T05:40:00;14.80;99.90
15072;DHT22;7635;56.696;13.002;2023-08-21T05:42:29;15.00;99.90
15072;DHT22;7635;56.696;13.002;2023-08-21T05:44:56;15.00;99.90
15072;DHT22;7635;56.696;13.002;2023-08-21T05:47:23;15.10;99.90
15072;DHT22;7635;56.696;13.002;2023-08-21T05:49:50;15.20;99.90
15072;DHT22;7635;56.696;13.002;2023-08-21T05:52:18;15.30;99.90
15072;DHT22;7635;56.696;13.002;2023-08-21T05:54:45;15.40;99.90
15072;DHT22;7635;56.696;13.002;2023-08-21T05:57:11;15.40;99.90
15072;DHT22;7635;56.696;13.002;2023-08-21T05:59:43;15.60;99.90
15072;DHT22;7635;56.696;13.002;2023-08-21T06:02:11;15.80;99.90
15072;DHT22;7635;56.696;13.002;2023-08-21T06:04:39;15.90;99.90
15072;DHT22;7635;56.696;13.002;2023-08-21T06:07:05;16.10;99.90
15072;DHT22;7635;56.696;13.002;2023-08-21T06:09:32;16.30;99.90
15072;DHT22;7635;56.696;13.002;2023-08-21T06:11:59;16.50;99.90
15072;DHT22;7635;56.696;13.002;2023-08-21T06:14:27;16.70;99.90
15072;DHT22;7635;56.696;13.002;2023-08-21T06:16:56;16.90;99.90
15072;DHT22;7635;56.696;13.002;2023-08-21T06:19:23;17.10;99.90
15072;DHT22;7635;56.696;13.002;2023-08-21T06:21:50;17.40;99.90
15072;DHT22;7635;56.696;13.002;2023-08-21T06:24:16;17.50;99.90
15072;DHT22;7635;56.696;13.002;2023-08-21T06:26:43;17.60;99.90
15072;DHT22;7635;56.696;13.002;2023-08-21T06:29:10;17.70;99.90
15072;DHT22;7635;56.696;13.002;2023-08-21T06:31:36;17.80;99.90
15072;DHT22;7635;56.696;13.002;2023-08-21T06:34:05;17.90;99.90
15072;DHT22;7635;56.696;13.002;2023-08-21T06:36:31;18.10;99.90
15072;DHT22;7635;56.696;13.002;2023-08-21T06:38:58;18.20;99.90
15072;DHT22;7635;56.696;13.002;2023-08-21T06:41:25;18.30;99.90
15072;DHT22;7635;56.696;13.002;2023-08-21T06:43:52;18.40;99.90
15072;DHT22;7635;56.696;13.002;2023-08-21T06:46:19;18.30;99.90
15072;DHT22;7635;56.696;13.002;2023-08-21T06:48:46;18.30;99.90
15072;DHT22;7635;56.696;13.002;2023-08-21T06:51:14;18.30;99.90
15072;DHT22;7635;56.696;13.002;2023-08-21T06:53:40;18.20;99.90
15072;DHT22;7635;56.696;13.002;2023-08-21T06:56:07;18.10;99.90
15072;DHT22;7635;56.696;13.002;2023-08-21T06:58:34;18.00;99.90
15072;DHT22;7635;56.696;13.002;2023-08-21T07:01:01;18.00;99.90
15072;DHT22;7635;56.696;13.002;2023-08-21T07:03:28;18.10;99.90
15072;DHT22;7635;56.696;13.002;2023-08-21T07:05:55;18.40;99.90
15072;DHT22;7635;56.696;13.002;2023-08-21T07:08:24;18.90;99.90
15072;DHT22;7635;56.696;13.002;2023-08-21T07:10:50;19.30;99.90
15072;DHT22;7635;56.696;13.002;2023-08-21T07:13:17;19.60;99.90
15072;DHT22;7635;56.696;13.002;2023-08-21T07:15:45;19.90;99.90
15072;DHT22;7635;56.696;13.002;2023-08-21T07:18:14;20.10;99.90
15072;DHT22;7635;56.696;13.002;2023-08-21T07:20:41;20.30;99.90
15072;DHT22;7635;56.696;13.002;2023-08-21T07:23:07;20.60;99.90
15072;DHT22;7635;56.696;13.002;2023-08-21T07:25:35;20.50;99.90
15072;DHT22;7635;56.696;13.002;2023-08-21T07:28:02;20.40;99.90
15072;DHT22;7635;56.696;13.002;2023-08-21T07:30:29;20.10;99.90
15072;DHT22;7635;56.696;13.002;2023-08-21T07:32:56;20.20;99.90
15072;DHT22;7635;56.696;13.002;2023-08-21T07:35:23;20.20;99.90
15072;DHT22;7635;56.696;13.002;2023-08-21T07:37:49;20.30;99.90
15072;DHT22;7635;56.696;13.002;2023-08-21T07:40:16;20.30;99.90
15072;DHT22;7635;56.696;13.002;2023-08-21T07:42:44;20.60;99.90
15072;DHT22;7635;56.696;13.002;2023-08-21T07:45:11;20.70;99.90
15072;DHT22;7635;56.696;13.002;2023-08-21T07:47:37;20.50;99.90
15072;DHT22;7635;56.696;13.002;2023-08-21T07:50:05;20.40;99.90
15072;DHT22;7635;56.696;13.002;2023-08-21T07:52:32;20.30;99.90
15072;DHT22;7635;56.696;13.002;2023-08-21T07:54:59;20.60;99.90
15072;DHT22;7635;56.696;13.002;2023-08-21T07:57:26;20.70;99.90
15072;DHT22;7635;56.696;13.002;2023-08-21T07:59:54;20.80;99.90
15072;DHT22;7635;56.696;13.002;2023-08-21T08:02:21;20.90;99.90
15072;DHT22;7635;56.696;13.002;2023-08-21T08:04:48;21.00;99.90
15072;DHT22;7635;56.696;13.002;2023-08-21T08:07:15;21.00;99.90
15072;DHT22;7635;56.696;13.002;2023-08-21T08:09:41;20.90;99.90
15072;DHT22;7635;56.696;13.002;2023-08-21T08:12:08;20.70;99.90
15072;DHT22;7635;56.696;13.002;2023-08-21T08:14:35;20.60;99.90
15072;DHT22;7635;56.696;13.002;2023-08-21T08:17:03;20.90;99.90
15072;DHT22;7635;56.696;13.002;2023-08-21T08:19:30;20.90;99.90
15072;DHT22;7635;56.696;13.002;2023-08-21T08:21:56;20.90;99.90
15072;DHT22;7635;56.696;13.002;2023-08-21T08:24:23;20.90;99.90
15072;DHT22;7635;56.696;13.002;2023-08-21T08:26:50;20.80;99.90
15072;DHT22;7635;56.696;13.002;2023-08-21T08:29:16;20.80;99.90
15072;DHT22;7635;56.696;13.002;2023-08-21T08:31:43;20.70;99.90
15072;DHT22;7635;56.696;13.002;2023-08-21T08:34:11;20.60;99.90
15072;DHT22;7635;56.696;13.002;2023-08-21T08:36:38;20.50;99.90
15072;DHT22;7635;56.696;13.002;2023-08-21T08:39:07;20.60;99.90
15072;DHT22;7635;56.696;13.002;2023-08-21T08:41:50;20.60;99.90
15072;DHT22;7635;56.696;13.002;2023-08-21T08:44:18;20.50;99.90
15072;DHT22;7635;56.696;13.002;2023-08-21T08:46:46;20.70;99.90
15072;DHT22;7635;56.696;13.002;2023-08-21T08:49:14;20.80;99.90
15072;DHT22;7635;56.696;13.002;2023-08-21T08:51:42;21.00;99.90
15072;DHT22;7635;56.696;13.002;2023-08-21T08:54:10;21.30;99.90
15072;DHT22;7635;56.696;13.002;2023-08-21T08:56:38;21.30;99.90
15072;DHT22;7635;56.696;13.002;2023-08-21T08:59:07;21.30;99.90
15072;DHT22;7635;56.696;13.002;2023-08-21T09:01:34;21.20;99.90
15072;DHT22;7635;56.696;13.002;2023-08-21T09:04:01;21.30;99.90
15072;DHT22;7635;56.696;13.002;2023-08-21T09:06:29;21.40;99.90
15072;DHT22;7635;56.696;13.002;2023-08-21T09:08:57;21.60;99.90
15072;DHT22;7635;56.696;13.002;2023-08-21T09:11:24;21.60;99.90
15072;DHT22;7635;56.696;13.002;2023-08-21T09:13:52;21.60;99.90
15072;DHT22;7635;56.696;13.002;2023-08-21T09:16:20;21.80;99.90
15072;DHT22;7635;56.696;13.002;2023-08-21T09:18:47;21.80;99.90
15072;DHT22;7635;56.696;13.002;2023-08-21T09:21:16;21.60;99.90
15072;DHT22;7635;56.696;13.002;2023-08-21T09:23:45;21.90;99.90
15072;DHT22;7635;56.696;13.002;2023-08-21T09:26:18;21.90;99.90
15072;DHT22;7635;56.696;13.002;2023-08-21T09:28:46;22.10;99.90
15072;DHT22;7635;56.696;13.002;2023-08-21T09:31:12;22.00;99.90
15072;DHT22;7635;56.696;13.002;2023-08-21T09:33:40;22.20;99.90
15072;DHT22;7635;56.696;13.002;2023-08-21T09:36:09;22.30;99.90
15072;DHT22;7635;56.696;13.002;2023-08-21T09:38:38;22.30;99.90
15072;DHT22;7635;56.696;13.002;2023-08-21T09:41:06;22.20;99.90
15072;DHT22;7635;56.696;13.002;2023-08-21T09:43:41;21.90;99.90
15072;DHT22;7635;56.696;13.002;2023-08-21T09:46:08;21.80;99.90
15072;DHT22;7635;56.696;13.002;2023-08-21T09:48:35;21.70;99.90
15072;DHT22;7635;56.696;13.002;2023-08-21T09:51:03;21.60;99.90
15072;DHT22;7635;56.696;13.002;2023-08-21T09:53:30;21.30;99.90
15072;DHT22;7635;56.696;13.002;2023-08-21T09:55:59;21.20;99.90
15072;DHT22;7635;56.696;13.002;2023-08-21T09:58:29;21.30;99.90
15072;DHT22;7635;56.696;13.002;2023-08-21T10:00:57;21.60;99.90
15072;DHT22;7635;56.696;13.002;2023-08-21T10:03:25;21.70;99.90
15072;DHT22;7635;56.696;13.002;2023-08-21T10:05:54;21.80;99.90
15072;DHT22;7635;56.696;13.002;2023-08-21T10:08:24;21.70;99.90
15072;DHT22;7635;56.696;13.002;2023-08-21T10:10:51;21.80;99.90
15072;DHT22;7635;56.696;13.002;2023-08-21T10:13:18;21.80;99.90
15072;DHT22;7635;56.696;13.002;2023-08-21T10:15:47;21.70;99.90
15072;DHT22;7635;56.696;13.002;2023-08-21T10:18:18;21.70;99.90
15072;DHT22;7635;56.696;13.002;2023-08-21T10:20:45;21.60;99.90
15072;DHT22;7635;56.696;13.002;2023-08-21T10:23:24;21.60;99.90
15072;DHT22;7635;56.696;13.002;2023-08-21T10:25:54;21.50;99.90
15072;DHT22;7635;56.696;13.002;2023-08-21T10:28:22;21.40;99.90
15072;DHT22;7635;56.696;13.002;2023-08-21T10:30:50;21.30;99.90
15072;DHT22;7635;56.696;13.002;2023-08-21T10:33:47;21.20;99.90
15072;DHT22;7635;56.696;13.002;2023-08-21T10:36:13;21.00;99.90
15072;DHT22;7635;56.696;13.002;2023-08-21T10:39:01;20.90;99.90
15072;DHT22;7635;56.696;13.002;2023-08-21T10:41:30;20.90;99.90
15072;DHT22;7635;56.696;13.002;2023-08-21T10:43:56;21.00;99.90
15072;DHT22;7635;56.696;13.002;2023-08-21T10:46:24;21.00;99.90
15072;DHT22;7635;56.696;13.002;2023-08-21T10:48:51;21.20;99.90
15072;DHT22;7635;56.696;13.002;2023-08-21T10:51:18;21.50;99.90
15072;DHT22;7635;56.696;13.002;2023-08-21T10:53:45;21.70;99.90
15072;DHT22;7635;56.696;13.002;2023-08-21T10:56:12;22.10;99.90
15072;DHT22;7635;56.696;13.002;2023-08-21T10:58:41;22.40;99.90
15072;DHT22;7635;56.696;13.002;2023-08-21T11:01:08;22.70;99.90
15072;DHT22;7635;56.696;13.002;2023-08-21T11:03:38;22.90;99.90
15072;DHT22;7635;56.696;13.002;2023-08-21T11:06:06;22.70;99.90
15072;DHT22;7635;56.696;13.002;2023-08-21T11:08:33;22.80;99.90
15072;DHT22;7635;56.696;13.002;2023-08-21T11:11:00;22.70;99.90
15072;DHT22;7635;56.696;13.002;2023-08-21T11:13:27;22.70;99.90
15072;DHT22;7635;56.696;13.002;2023-08-21T11:16:01;22.90;99.90
15072;DHT22;7635;56.696;13.002;2023-08-21T11:18:32;23.00;99.90
15072;DHT22;7635;56.696;13.002;2023-08-21T11:21:08;23.10;99.90
15072;DHT22;7635;56.696;13.002;2023-08-21T11:23:36;23.20;99.90
15072;DHT22;7635;56.696;13.002;2023-08-21T11:26:04;23.30;99.90
15072;DHT22;7635;56.696;13.002;2023-08-21T11:28:31;23.30;99.90
15072;DHT22;7635;56.696;13.002;2023-08-21T11:30:58;23.10;99.90
15072;DHT22;7635;56.696;13.002;2023-08-21T11:33:26;22.90;99.90
15072;DHT22;7635;56.696;13.002;2023-08-21T11:35:54;22.70;99.90
15072;DHT22;7635;56.696;13.002;2023-08-21T11:38:25;22.60;99.90
15072;DHT22;7635;56.696;13.002;2023-08-21T11:40:53;22.60;99.90
15072;DHT22;7635;56.696;13.002;2023-08-21T11:43:20;22.60;99.90
15072;DHT22;7635;56.696;13.002;2023-08-21T11:45:47;22.60;99.90
15072;DHT22;7635;56.696;13.002;2023-08-21T11:48:14;22.50;99.90
15072;DHT22;7635;56.696;13.002;2023-08-21T11:50:41;22.50;99.90
15072;DHT22;7635;56.696;13.002;2023-08-21T11:53:08;22.60;99.90
15072;DHT22;7635;56.696;13.002;2023-08-21T11:55:38;22.60;99.90
15072;DHT22;7635;56.696;13.002;2023-08-21T11:58:06;22.50;99.90
15072;DHT22;7635;56.696;13.002;2023-08-21T12:00:32;22.40;99.90
15072;DHT22;7635;56.696;13.002;2023-08-21T12:03:00;22.30;99.90
15072;DHT22;7635;56.696;13.002;2023-08-21T12:05:29;22.30;99.90
15072;DHT22;7635;56.696;13.002;2023-08-21T12:07:56;22.30;99.90
15072;DHT22;7635;56.696;13.002;2023-08-21T12:10:23;22.50;99.90
15072;DHT22;7635;56.696;13.002;2023-08-21T12:12:51;22.60;99.90
15072;DHT22;7635;56.696;13.002;2023-08-21T12:15:19;22.70;99.90
15072;DHT22;7635;56.696;13.002;2023-08-21T12:17:46;22.70;99.90
15072;DHT22;7635;56.696;13.002;2023-08-21T12:20:12;22.70;99.90
15072;DHT22;7635;56.696;13.002;2023-08-21T12:22:39;22.70;99.90
15072;DHT22;7635;56.696;13.002;2023-08-21T12:25:07;22.50;99.90
15072;DHT22;7635;56.696;13.002;2023-08-21T12:27:34;22.30;99.90
15072;DHT22;7635;56.696;13.002;2023-08-21T12:30:02;22.30;99.90
15072;DHT22;7635;56.696;13.002;2023-08-21T12:32:29;22.20;99.90
15072;DHT22;7635;56.696;13.002;2023-08-21T12:34:55;22.10;99.90
15072;DHT22;7635;56.696;13.002;2023-08-21T12:37:22;22.10;99.90
15072;DHT22;7635;56.696;13.002;2023-08-21T12:39:49;22.00;99.90
15072;DHT22;7635;56.696;13.002;2023-08-21T12:42:15;22.00;99.90
15072;DHT22;7635;56.696;13.002;2023-08-21T12:44:42;21.90;99.90
15072;DHT22;7635;56.696;13.002;2023-08-21T12:47:10;21.90;99.90
15072;DHT22;7635;56.696;13.002;2023-08-21T12:49:37;21.90;99.90
15072;DHT22;7635;56.696;13.002;2023-08-21T12:52:05;22.00;99.90
15072;DHT22;7635;56.696;13.002;2023-08-21T12:54:32;22.10;99.90
15072;DHT22;7635;56.696;13.002;2023-08-21T12:56:59;22.20;99.90
15072;DHT22;7635;56.696;13.002;2023-08-21T12:59:25;22.20;99.90
15072;DHT22;7635;56.696;13.002;2023-08-21T13:01:52;22.20;99.90
15072;DHT22;7635;56.696;13.002;2023-08-21T13:04:20;22.20;99.90
15072;DHT22;7635;56.696;13.002;2023-08-21T13:06:47;22.40;99.90
15072;DHT22;7635;56.696;13.002;2023-08-21T13:09:13;22.60;99.90
15072;DHT22;7635;56.696;13.002;2023-08-21T13:11:40;22.70;99.90
15072;DHT22;7635;56.696;13.002;2023-08-21T13:14:07;22.70;99.90
15072;DHT22;7635;56.696;13.002;2023-08-21T13:16:33;22.60;99.90
15072;DHT22;7635;56.696;13.002;2023-08-21T13:19:00;22.60;99.90
15072;DHT22;7635;56.696;13.002;2023-08-21T13:21:28;22.60;99.90
15072;DHT22;7635;56.696;13.002;2023-08-21T13:23:55;22.60;99.90
15072;DHT22;7635;56.696;13.002;2023-08-21T13:26:22;22.50;99.90
15072;DHT22;7635;56.696;13.002;2023-08-21T13:28:50;22.40;99.90
15072;DHT22;7635;56.696;13.002;2023-08-21T13:31:17;22.40;99.90
15072;DHT22;7635;56.696;13.002;2023-08-21T13:33:44;22.30;99.90
15072;DHT22;7635;56.696;13.002;2023-08-21T13:36:11;22.30;99.90
15072;DHT22;7635;56.696;13.002;2023-08-21T13:38:39;22.30;99.90
15072;DHT22;7635;56.696;13.002;2023-08-21T13:41:06;22.30;99.90
15072;DHT22;7635;56.696;13.002;2023-08-21T13:43:33;22.30;99.90
15072;DHT22;7635;56.696;13.002;2023-08-21T13:46:00;22.30;99.90
15072;DHT22;7635;56.696;13.002;2023-08-21T13:48:29;22.20;99.90
15072;DHT22;7635;56.696;13.002;2023-08-21T13:50:56;22.20;99.90
15072;DHT22;7635;56.696;13.002;2023-08-21T13:53:22;22.10;99.90
15072;DHT22;7635;56.696;13.002;2023-08-21T13:55:51;22.10;99.90
15072;DHT22;7635;56.696;13.002;2023-08-21T13:58:17;22.00;99.90
15072;DHT22;7635;56.696;13.002;2023-08-21T14:00:44;21.90;99.90
15072;DHT22;7635;56.696;13.002;2023-08-21T14:03:11;21.80;99.90
15072;DHT22;7635;56.696;13.002;2023-08-21T14:05:38;21.70;99.90
15072;DHT22;7635;56.696;13.002;2023-08-21T14:08:05;21.60;99.90
15072;DHT22;7635;56.696;13.002;2023-08-21T14:10:31;21.50;99.90
15072;DHT22;7635;56.696;13.002;2023-08-21T14:13:00;21.40;99.90
15072;DHT22;7635;56.696;13.002;2023-08-21T14:15:29;21.30;99.90
15072;DHT22;7635;56.696;13.002;2023-08-21T14:17:55;21.30;99.90
15072;DHT22;7635;56.696;13.002;2023-08-21T14:20:22;21.10;99.90
15072;DHT22;7635;56.696;13.002;2023-08-21T14:22:49;21.00;99.90
15072;DHT22;7635;56.696;13.002;2023-08-21T14:25:17;20.90;99.90
15072;DHT22;7635;56.696;13.002;2023-08-21T14:27:44;20.80;99.90
15072;DHT22;7635;56.696;13.002;2023-08-21T14:30:12;20.80;99.90
15072;DHT22;7635;56.696;13.002;2023-08-21T14:32:39;20.80;99.90
15072;DHT22;7635;56.696;13.002;2023-08-21T14:35:08;20.80;99.90
15072;DHT22;7635;56.696;13.002;2023-08-21T14:37:34;20.70;99.90
15072;DHT22;7635;56.696;13.002;2023-08-21T14:40:01;20.70;99.90
15072;DHT22;7635;56.696;13.002;2023-08-21T14:42:32;20.70;99.90
15072;DHT22;7635;56.696;13.002;2023-08-21T14:44:59;20.90;99.90
15072;DHT22;7635;56.696;13.002;2023-08-21T14:47:27;20.90;99.90
15072;DHT22;7635;56.696;13.002;2023-08-21T14:49:54;20.80;99.90
15072;DHT22;7635;56.696;13.002;2023-08-21T14:52:20;20.70;99.90
15072;DHT22;7635;56.696;13.002;2023-08-21T14:54:48;20.70;99.90
15072;DHT22;7635;56.696;13.002;2023-08-21T14:57:15;20.60;99.90
15072;DHT22;7635;56.696;13.002;2023-08-21T14:59:41;20.60;99.90
15072;DHT22;7635;56.696;13.002;2023-08-21T15:02:08;20.70;99.90
15072;DHT22;7635;56.696;13.002;2023-08-21T15:04:36;20.70;99.90
15072;DHT22;7635;56.696;13.002;2023-08-21T15:07:03;20.70;99.90
15072;DHT22;7635;56.696;13.002;2023-08-21T15:09:29;20.60;99.90
15072;DHT22;7635;56.696;13.002;2023-08-21T15:11:56;20.60;99.90
15072;DHT22;7635;56.696;13.002;2023-08-21T15:14:23;20.60;99.90
15072;DHT22;7635;56.696;13.002;2023-08-21T15:16:49;20.60;99.90
15072;DHT22;7635;56.696;13.002;2023-08-21T15:19:16;20.60;99.90
15072;DHT22;7635;56.696;13.002;2023-08-21T15:21:44;20.50;99.90
15072;DHT22;7635;56.696;13.002;2023-08-21T15:24:11;20.50;99.90
15072;DHT22;7635;56.696;13.002;2023-08-21T15:26:37;20.50;99.90
15072;DHT22;7635;56.696;13.002;2023-08-21T15:29:04;20.40;99.90
15072;DHT22;7635;56.696;13.002;2023-08-21T15:31:31;20.30;99.90